• Join FlightAware (Why Join?)
  • Login
  • US Flag 
Rudolph Flight #1: Arrived! 
07:03PM EST


 

Airport Tracker/Info


-or-


 

Live Flight TrackerFlight Track Log ✈ UAL1006 ✈ 22-Jul-2013 ✈ SKBO / BOG - KIAH

Flight Track Log - Related Links

Times and Time Zones

All times are in EDT time to prevent confusion due to time zone crossing. See the UAL1006 flight status page for this flight to view local times or setup timezone preferences in your user account.

Time Position Orientation Groundspeed Altitude Reporting Facility
EDT Latitude Longitude Course Direction KTS MPH feet Rate Location/Type
02:53AM 4.6950 -74.1320 126° Southeast 18 21  Level FlightAware
02:54AM 4.6930 -74.1290 124° Southeast 19 22 2,700 Level FlightAware
02:54AM 4.6930 -74.1280 90° East 20 23 3,420 Level FlightAware
02:55AM 4.6920 -74.1260 117° Southeast 16 18 3,600 Level FlightAware
02:55AM 4.6930 -74.1260 360° North 15 17 4,620 Level FlightAware
02:56AM 4.6970 -74.1310 309° West 105 121 6,600 Level FlightAware
02:56AM 4.7040 -74.1400 308° West 105 121 9,000 Level FlightAware
02:57AM 4.7290 -74.1710 309° West 212 244 9,200 9,180 Climbing FlightAware
02:57AM 4.7420 -74.1890 306° West 212 244 9,200  Level FlightAware
02:57AM 4.7490 -74.1970 311° West 212 244 9,200  Level FlightAware
02:58AM 4.7610 -74.2130 307° West 212 244 9,200 3,600 Level FlightAware
02:58AM 4.7380 -74.2510 239° Southwest 227 261 12,000 3,360 Climbing FlightAware
02:59AM 4.7070 -74.2850 228° Southwest 265 305 12,700 780 Climbing FlightAware
03:00AM 4.6820 -74.3240 237° Southwest 282 325 13,100 300 Climbing FlightAware
03:00AM 4.6600 -74.3570 236° Southwest 282 325 13,100  Level FlightAware
03:01AM 4.6310 -74.4020 237° Southwest 282 325 13,100 2,700 Level FlightAware
03:01AM 4.8310 -74.4680 342° North 400 460 16,400 4,260 Climbing FlightAware
03:02AM 4.8890 -74.5250 316° Northwest 415 478 17,900 2,160 Climbing FlightAware
03:03AM 4.9490 -74.5870 314° West 424 488 19,500 2,040 Climbing FlightAware
03:03AM 5.0080 -74.6450 316° Northwest 431 496 20,900 1,500 Climbing FlightAware
03:04AM 5.0650 -74.7030 315° West 453 521 21,600 1,020 Climbing FlightAware
03:05AM 5.1220 -74.7690 311° West 474 545 22,300 1,320 Climbing FlightAware
03:05AM 5.1540 -74.8510 291° West 477 549 23,400 1,320 Climbing FlightAware
03:06AM 5.1840 -74.9350 290° West 489 563 24,100 1,800 Climbing FlightAware
03:07AM 5.2120 -75.0160 289° West 475 547 25,800 2,400 Climbing FlightAware
03:07AM 5.2350 -75.0920 287° West 469 540 27,100 1,020 Climbing FlightAware
03:08AM 5.2510 -75.1600 283° West 469 540 27,100  Level FlightAware
03:09AM 5.2710 -75.2470 283° West 469 540 27,100  Level FlightAware
03:09AM 5.2860 -75.3120 283° West 469 540 27,100  Level FlightAware
03:10AM 5.3060 -75.4000 283° West 469 540 27,100  Level FlightAware
03:11AM 5.3200 -75.4620 283° West 469 540 27,100 3,480 Level FlightAware
03:12AM 5.3840 -75.6560 288° West 468 539 32,500 3,840 Climbing FlightAware
03:12AM 5.4490 -75.7050 323° Northwest 455 524 33,200 1,200 Climbing FlightAware
03:13AM 5.5200 -75.7580 323° Northwest 450 518 34,100 1,380 Climbing FlightAware
03:14AM 5.6180 -75.8330 323° Northwest 437 503 35,600 1,140 Climbing FlightAware
03:15AM 5.6760 -75.8760 324° Northwest 438 504 36,000 300 Climbing FlightAware
03:15AM 5.7450 -75.9270 324° Northwest 449 517 36,000  Level FlightAware
03:16AM 5.8230 -75.9840 324° Northwest 456 525 36,000  Level FlightAware
03:17AM 5.8890 -76.0320 324° Northwest 460 529 36,000  Level FlightAware
03:18AM 5.9680 -76.0900 324° Northwest 464 534 36,000  Level FlightAware
03:18AM 6.0270 -76.1330 324° Northwest 466 536 36,000  Level FlightAware
03:19AM 6.1060 -76.1910 324° Northwest 467 537 36,000  Level FlightAware
03:20AM 6.1820 -76.2470 324° Northwest 470 541 36,000  Level FlightAware
03:21AM 6.2730 -76.3140 324° Northwest 470 541 36,000  Level FlightAware
03:21AM 6.3490 -76.3690 324° Northwest 471 542 36,000  Level FlightAware
03:22AM 6.4190 -76.4210 324° Northwest 471 542 36,000  Level FlightAware
03:23AM 6.5330 -76.5050 324° Northwest 471 542 36,000  Level FlightAware
03:24AM 6.6030 -76.5570 324° Northwest 471 542 36,000  Level FlightAware
03:24AM 6.6750 -76.6090 324° Northwest 470 541 36,000  Level FlightAware
03:25AM 6.7520 -76.6660 324° Northwest 468 539 36,000  Level FlightAware
03:26AM 6.8230 -76.7180 324° Northwest 469 540 36,000  Level FlightAware
03:26AM 6.9010 -76.7760 324° Northwest 470 541 36,000  Level FlightAware
03:27AM 6.9710 -76.8280 324° Northwest 470 541 36,000  Level FlightAware
03:28AM 7.0420 -76.8800 324° Northwest 470 541 36,000  Level FlightAware
03:28AM 7.1030 -76.9240 324° Northwest 470 541 36,000  Level FlightAware
03:29AM 7.1800 -76.9810 324° Northwest 471 542 36,000  Level FlightAware
03:30AM 7.2530 -77.0350 324° Northwest 473 544 36,000  Level FlightAware
03:30AM 7.3140 -77.0800 324° Northwest 477 549 36,000  Level FlightAware
03:31AM 7.3960 -77.1410 324° Northwest 478 550 36,000  Level FlightAware
03:32AM 7.4680 -77.1940 324° Northwest 480 552 36,000  Level FlightAware
03:32AM 7.5480 -77.2530 324° Northwest 480 552 36,000  Level FlightAware
03:33AM 7.6200 -77.3060 324° Northwest 480 552 36,000  Level FlightAware
03:34AM 7.6920 -77.3590 324° Northwest 480 552 36,000  Level FlightAware
03:35AM 7.7660 -77.4260 318° Northwest 483 556 36,000  Level FlightAware
03:35AM 7.8120 -77.4760 313° West 484 557 36,000  Level FlightAware
03:36AM 7.8790 -77.5510 312° West 484 557 36,000  Level FlightAware
03:36AM 7.9400 -77.6190 312° West 486 559 36,000  Level FlightAware
03:37AM 8.0070 -77.6940 312° West 486 559 36,000  Level FlightAware
03:38AM 8.0760 -77.7710 312° West 486 559 36,000  Level FlightAware
03:39AM 8.1360 -77.8380 312° West 487 560 36,000  Level FlightAware
03:39AM 8.2030 -77.9120 312° West 486 559 36,000  Level FlightAware
03:40AM 8.2500 -77.9640 312° West 486 559 36,000  Level FlightAware
03:41AM 8.3170 -78.0390 312° West 484 557 36,000  Level FlightAware
03:41AM 8.3770 -78.1060 312° West 483 556 36,000  Level FlightAware
03:42AM 8.4320 -78.1600 316° Northwest 481 554 36,000  Level FlightAware
03:43AM 8.5100 -78.2260 320° Northwest 478 550 36,000  Level FlightAware
03:43AM 8.5650 -78.2720 320° Northwest 478 550 36,000  Level FlightAware
03:44AM 8.6460 -78.3400 320° Northwest 477 549 36,000  Level FlightAware
03:45AM 8.7080 -78.3920 320° Northwest 474 545 36,000  Level FlightAware
03:45AM 8.7900 -78.4610 320° Northwest 472 543 36,000  Level FlightAware
03:46AM 8.8530 -78.5140 320° Northwest 470 541 36,000  Level FlightAware
03:47AM 8.9230 -78.5730 320° Northwest 471 542 36,000  Level FlightAware
03:47AM 8.9910 -78.6310 320° Northwest 472 543 36,000  Level FlightAware
03:48AM 9.0580 -78.6870 320° Northwest 472 543 36,000  Level FlightAware
03:49AM 9.1250 -78.7430 320° Northwest 476 548 36,000  Level FlightAware
03:49AM 9.1930 -78.8010 320° Northwest 476 548 36,000  Level FlightAware
03:50AM 9.2470 -78.8460 321° Northwest 477 549 36,000  Level FlightAware
03:51AM 9.3260 -78.9130 320° Northwest 478 550 36,000  Level FlightAware
03:51AM 9.3890 -78.9660 320° Northwest 478 550 36,000  Level FlightAware
03:52AM 9.4400 -79.0100 320° Northwest 478 550 36,000  Level FlightAware
03:53AM 9.5100 -79.0690 320° Northwest 478 550 36,000  Level FlightAware
03:53AM 9.5610 -79.1130 320° Northwest 478 550 36,000  Level FlightAware
03:54AM 9.6310 -79.1720 320° Northwest 478 550 36,000  Level FlightAware
03:55AM 9.6820 -79.2160 320° Northwest 478 550 36,000  Level FlightAware
03:56AM 9.7510 -79.2750 320° Northwest 478 550 36,000  Level FlightAware
03:56AM 9.8030 -79.3190 320° Northwest 478 550 36,000  Level FlightAware
03:57AM 9.8740 -79.3790 320° Northwest 478 550 36,000  Level FlightAware
03:58AM 9.9260 -79.4230 320° Northwest 478 550 36,000  Level FlightAware
03:58AM 9.9780 -79.4670 320° Northwest 478 550 36,000  Level FlightAware
03:59AM 10.0470 -79.5260 320° Northwest 478 550 36,000  Level FlightAware
04:00AM 10.0980 -79.5700 320° Northwest 478 550 36,000  Level FlightAware
04:00AM 10.1500 -79.6150 320° Northwest 478 550 36,000 -60 Level FlightAware
04:03AM 10.3728 -79.7692 326° Northwest  Level Estimated
04:04AM 10.4741 -79.8393 326° Northwest  Level Estimated
04:05AM 10.5754 -79.9095 326° Northwest  Level Estimated
04:06AM 10.6766 -79.9798 326° Northwest  Level Estimated
04:07AM 10.7778 -80.0501 326° Northwest  Level Estimated
04:08AM 10.8790 -80.1204 326° Northwest  Level Estimated
04:09AM 10.9802 -80.1908 326° Northwest  Level Estimated
04:10AM 11.0814 -80.2612 326° Northwest  Level Estimated
04:11AM 11.1825 -80.3317 326° Northwest  Level Estimated
04:12AM 11.2837 -80.4022 326° Northwest  Level Estimated
04:13AM 11.3848 -80.4728 326° Northwest  Level Estimated
04:14AM 11.4859 -80.5434 326° Northwest  Level Estimated
04:15AM 11.5870 -80.6141 326° Northwest  Level Estimated
04:16AM 11.6881 -80.6849 326° Northwest  Level Estimated
04:17AM 11.7891 -80.7556 326° Northwest  Level Estimated
04:18AM 11.8901 -80.8265 326° Northwest  Level Estimated
04:19AM 11.9912 -80.8974 326° Northwest  Level Estimated
04:20AM 12.0922 -80.9683 326° Northwest  Level Estimated
04:21AM 12.1931 -81.0393 326° Northwest  Level Estimated
04:22AM 12.2941 -81.1104 325° Northwest  Level Estimated
04:23AM 12.3951 -81.1815 325° Northwest  Level Estimated
04:24AM 12.4960 -81.2526 325° Northwest  Level Estimated
04:25AM 12.5969 -81.3239 325° Northwest  Level Estimated
04:26AM 12.6978 -81.3951 325° Northwest  Level Estimated
04:27AM 12.7986 -81.4665 325° Northwest  Level Estimated
04:28AM 12.8995 -81.5378 325° Northwest  Level Estimated
04:29AM 13.0003 -81.6093 325° Northwest  Level Estimated
04:30AM 13.1011 -81.6808 325° Northwest  Level Estimated
04:31AM 13.2019 -81.7523 325° Northwest  Level Estimated
04:32AM 13.3027 -81.8240 325° Northwest  Level Estimated
04:33AM 13.4035 -81.8956 325° Northwest  Level Estimated
04:34AM 13.5042 -81.9674 325° Northwest  Level Estimated
04:35AM 13.6049 -82.0392 325° Northwest  Level Estimated
04:36AM 13.7056 -82.1110 325° Northwest  Level Estimated
04:37AM 13.8062 -82.1830 325° Northwest  Level Estimated
04:38AM 13.9069 -82.2549 325° Northwest  Level Estimated
04:39AM 14.0075 -82.3270 325° Northwest  Level Estimated
04:40AM 14.1081 -82.3991 325° Northwest  Level Estimated
04:41AM 14.2087 -82.4713 325° Northwest  Level Estimated
04:42AM 14.3093 -82.5435 325° Northwest  Level Estimated
04:43AM 14.4098 -82.6158 325° Northwest  Level Estimated
04:44AM 14.5104 -82.6882 325° Northwest  Level Estimated
04:45AM 14.6109 -82.7606 325° Northwest  Level Estimated
04:46AM 14.7113 -82.8331 325° Northwest  Level Estimated
04:47AM 14.8118 -82.9057 325° Northwest  Level Estimated
04:48AM 14.9122 -82.9783 325° Northwest  Level Estimated
04:49AM 15.0126 -83.0510 325° Northwest  Level Estimated
04:50AM 15.1130 -83.1238 325° Northwest  Level Estimated
04:51AM 15.2134 -83.1966 325° Northwest  Level Estimated
04:52AM 15.3137 -83.2695 325° Northwest  Level Estimated
04:53AM 15.4140 -83.3425 325° Northwest  Level Estimated
04:54AM 15.5143 -83.4156 325° Northwest  Level Estimated
04:55AM 15.6146 -83.4887 325° Northwest  Level Estimated
04:56AM 15.7148 -83.5619 325° Northwest  Level Estimated
04:57AM 15.8150 -83.6351 325° Northwest  Level Estimated
04:58AM 15.9152 -83.7085 325° Northwest  Level Estimated
04:59AM 16.0165 -83.7827 325° Northwest  Level Estimated
05:00AM 16.1178 -83.8570 325° Northwest  Level Estimated
05:01AM 16.2191 -83.9314 325° Northwest  Level Estimated
05:02AM 16.3203 -84.0059 325° Northwest  Level Estimated
05:03AM 16.4215 -84.0805 325° Northwest  Level Estimated
05:04AM 16.5227 -84.1551 325° Northwest  Level Estimated
05:05AM 16.6239 -84.2298 325° Northwest  Level Estimated
05:06AM 16.7250 -84.3046 325° Northwest  Level Estimated
05:07AM 16.8261 -84.3795 325° Northwest  Level Estimated
05:08AM 16.9272 -84.4544 325° Northwest  Level Estimated
05:09AM 17.0283 -84.5295 325° Northwest  Level Estimated
05:10AM 17.1293 -84.6046 325° Northwest  Level Estimated
05:11AM 17.2303 -84.6798 325° Northwest  Level Estimated
05:12AM 17.3312 -84.7550 325° Northwest  Level Estimated
05:13AM 17.4322 -84.8304 325° Northwest  Level Estimated
05:14AM 17.5331 -84.9058 325° Northwest  Level Estimated
05:15AM 17.6340 -84.9814 324° Northwest  Level Estimated
05:16AM 17.7348 -85.0570 324° Northwest  Level Estimated
05:17AM 17.8356 -85.1327 324° Northwest  Level Estimated
05:18AM 17.9364 -85.2085 324° Northwest  Level Estimated
05:19AM 18.0372 -85.2843 324° Northwest  Level Estimated
05:20AM 18.1380 -85.3603 324° Northwest  Level Estimated
05:21AM 18.2387 -85.4363 324° Northwest  Level Estimated
05:21AM 18.8860 -85.8680 324° Northwest 483 556 34,000  Level FlightAware
05:22AM 18.3393 -85.5124 324° Northwest  Level Estimated
05:22AM 18.9740 -85.9280 327° Northwest 482 555 34,000  Level FlightAware
05:23AM 19.0670 -85.9910 327° Northwest 481 554 34,000  Level FlightAware
05:24AM 19.1430 -86.0430 327° Northwest 481 554 34,000  Level FlightAware
05:24AM 19.2250 -86.0990 327° Northwest 480 552 34,000  Level FlightAware
05:25AM 19.3000 -86.1500 327° Northwest 478 550 34,000  Level FlightAware
05:26AM 19.3780 -86.2030 327° Northwest 477 549 34,000  Level FlightAware
05:26AM 19.4550 -86.2560 327° Northwest 475 547 34,000  Level FlightAware
05:27AM 19.5160 -86.2970 328° Northwest 474 545 34,000  Level FlightAware
05:28AM 19.5880 -86.3470 327° Northwest 473 544 34,000  Level FlightAware
05:28AM 19.6520 -86.3880 329° Northwest 472 543 34,000  Level FlightAware
05:29AM 19.7330 -86.4370 330° Northwest 470 541 34,000  Level FlightAware
05:30AM 19.8150 -86.4870 330° Northwest 471 542 34,000  Level FlightAware
05:30AM 19.8760 -86.5250 330° Northwest 470 541 34,000  Level FlightAware
05:31AM 19.9590 -86.5750 330° Northwest 470 541 34,000  Level FlightAware
05:31AM 20.0280 -86.6170 330° Northwest 472 543 34,000  Level FlightAware
05:32AM 20.1180 -86.6720 330° Northwest 473 544 34,000  Level FlightAware
05:33AM 20.1940 -86.7190 330° Northwest 474 545 34,000  Level FlightAware
05:34AM 20.2780 -86.7710 330° Northwest 474 545 34,000  Level FlightAware
05:34AM 20.3550 -86.8180 330° Northwest 474 545 34,000  Level FlightAware
05:35AM 20.4380 -86.8690 330° Northwest 474 545 34,000  Level FlightAware
05:36AM 20.5140 -86.9170 329° Northwest 476 548 34,000  Level FlightAware
05:36AM 20.5940 -86.9740 326° Northwest 476 548 34,000  Level FlightAware
05:37AM 20.6690 -87.0270 327° Northwest 475 547 34,000  Level FlightAware
05:38AM 20.7440 -87.0800 327° Northwest 475 547 34,000  Level FlightAware
05:39AM 20.8250 -87.1390 326° Northwest 474 545 34,000  Level FlightAware
05:39AM 20.8940 -87.1880 326° Northwest 474 545 34,000  Level FlightAware
05:40AM 20.9770 -87.2470 326° Northwest 474 545 34,000  Level FlightAware
05:41AM 21.0510 -87.3000 326° Northwest 475 547 34,000  Level FlightAware
05:41AM 21.1290 -87.3560 326° Northwest 476 548 34,000  Level FlightAware
05:42AM 21.1940 -87.4030 326° Northwest 475 547 34,000  Level FlightAware
05:43AM 21.2470 -87.4410 326° Northwest 475 547 34,000  Level FlightAware
05:43AM 21.3510 -87.5160 326° Northwest 477 549 34,000  Level FlightAware
05:44AM 21.4080 -87.5570 326° Northwest 478 550 34,000  Level FlightAware
05:45AM 21.4920 -87.6180 326° Northwest 478 550 34,000  Level FlightAware
05:45AM 21.5640 -87.6700 326° Northwest 478 550 34,000  Level FlightAware
05:46AM 21.6430 -87.7270 326° Northwest 479 551 34,000  Level FlightAware
05:47AM 21.7230 -87.7850 326° Northwest 480 552 34,000  Level FlightAware
05:47AM 21.7980 -87.8400 326° Northwest 480 552 34,000  Level FlightAware
05:48AM 21.8780 -87.8980 326° Northwest 481 554 34,000  Level FlightAware
05:49AM 21.9380 -87.9420 326° Northwest 482 555 34,000  Level FlightAware
05:49AM 22.0030 -87.9890 326° Northwest 482 555 34,000  Level FlightAware
05:50AM 22.0860 -88.0490 326° Northwest 482 555 34,000  Level FlightAware
05:51AM 22.1910 -88.1260 326° Northwest 482 555 34,000  Level FlightAware
05:52AM 22.3080 -88.2110 326° Northwest 483 556 34,000  Level FlightAware
05:53AM 22.4130 -88.2890 326° Northwest 482 555 34,000  Level FlightAware
05:54AM 22.4790 -88.3370 326° Northwest 481 554 34,000  Level FlightAware
05:54AM 22.5790 -88.4100 326° Northwest 481 554 34,000  Level FlightAware
05:55AM 22.6500 -88.4630 325° Northwest 482 555 34,000  Level FlightAware
05:56AM 22.7170 -88.5120 326° Northwest 482 555 34,000  Level FlightAware
05:56AM 22.7930 -88.5680 326° Northwest 482 555 34,000  Level FlightAware
05:57AM 22.8920 -88.6420 325° Northwest 483 556 34,000  Level FlightAware
05:58AM 22.9760 -88.7040 326° Northwest 484 557 34,000  Level FlightAware
05:59AM 23.0260 -88.7410 326° Northwest 484 557 34,000  Level FlightAware
05:59AM 23.1230 -88.8130 326° Northwest 484 557 34,000  Level FlightAware
06:00AM 23.2090 -88.8770 326° Northwest 483 556 34,000  Level FlightAware
06:01AM 23.1590 -88.8400 146° Southeast 484 557 34,000  Level FlightAware
06:02AM 23.3650 -88.9940 326° Northwest 481 554 34,000  Level FlightAware
06:03AM 23.4710 -89.0730 326° Northwest 480 552 34,000  Level FlightAware
06:03AM 23.5270 -89.1150 325° Northwest 480 552 34,000  Level FlightAware
06:04AM 23.6040 -89.1740 325° Northwest 480 552 34,000  Level FlightAware
06:05AM 23.7170 -89.2580 326° Northwest 477 549 34,000  Level FlightAware
06:05AM 23.6760 -89.2270 145° Southeast 477 549 34,000  Level FlightAware
06:06AM 23.7120 -89.2540 326° Northwest 477 549 34,000  Level FlightAware
06:07AM 23.8090 -89.3280 325° Northwest 477 549 34,000  Level FlightAware
06:08AM 24.0160 -89.4830 326° Northwest 477 549 34,000  Level FlightAware
06:08AM 24.0920 -89.5410 325° Northwest 477 549 34,000  Level FlightAware
06:09AM 24.1470 -89.5840 324° Northwest 477 549 34,000  Level FlightAware
06:10AM 24.2210 -89.6400 325° Northwest 477 549 34,000  Level FlightAware
06:10AM 24.2760 -89.6830 325° Northwest 477 549 34,000  Level FlightAware
06:11AM 24.3480 -89.7380 325° Northwest 477 549 34,000  Level FlightAware
06:12AM 24.4040 -89.7810 325° Northwest 477 549 34,000  Level FlightAware
06:13AM 24.4800 -89.8400 325° Northwest 477 549 34,000  Level FlightAware
06:13AM 24.5330 -89.8800 326° Northwest 477 549 34,000  Level FlightAware
06:14AM 24.6060 -89.9370 325° Northwest 477 549 34,000  Level FlightAware
06:15AM 24.6620 -89.9790 326° Northwest 477 549 34,000  Level FlightAware
06:15AM 24.7350 -90.0360 325° Northwest 477 549 34,000  Level FlightAware
06:16AM 24.7910 -90.0790 325° Northwest 477 549 34,000  Level FlightAware
06:17AM 24.8650 -90.1360 325° Northwest 477 549 34,000  Level FlightAware
06:17AM 24.9200 -90.1790 325° Northwest 477 549 34,000  Level FlightAware
06:20AM 25.1294 -90.3364 326° Northwest  Level FlightAware Approximate
06:21AM 25.2306 -90.4128 326° Northwest  Level FlightAware Approximate
06:22AM 25.3319 -90.4893 326° Northwest  Level FlightAware Approximate
06:23AM 25.4331 -90.5659 326° Northwest  Level FlightAware Approximate
06:24AM 25.5340 -90.6431 325° Northwest  Level FlightAware Approximate
06:25AM 25.6343 -90.7212 325° Northwest  Level FlightAware Approximate
06:26AM 25.7346 -90.7995 325° Northwest  Level FlightAware Approximate
06:27AM 25.8348 -90.8779 325° Northwest  Level FlightAware Approximate
06:28AM 25.9355 -90.9567 325° Northwest  Level FlightAware Approximate
06:29AM 26.0362 -91.0358 325° Northwest  Level FlightAware Approximate
06:30AM 26.1368 -91.1150 325° Northwest  Level FlightAware Approximate
06:31AM 26.2373 -91.1943 325° Northwest  Level FlightAware Approximate
06:32AM 26.3378 -91.2737 325° Northwest  Level FlightAware Approximate
06:33AM 26.4384 -91.3531 325° Northwest  Level FlightAware Approximate
06:34AM 26.5389 -91.4327 325° Northwest  Level FlightAware Approximate
06:35AM 26.6394 -91.5124 325° Northwest  Level FlightAware Approximate
06:36AM 26.7399 -91.5922 325° Northwest  Level FlightAware Approximate
06:37AM 26.8403 -91.6722 325° Northwest  Level FlightAware Approximate
06:38AM 26.9407 -91.7523 325° Northwest  Level FlightAware Approximate
06:39AM 27.0410 -91.8325 325° Northwest  Level FlightAware Approximate
06:39AM 27.4507 -92.1843 325° Northwest 476 548 34,000  Level FlightAware ADS-B
06:40AM 27.5006 -92.2350 318° Northwest 477 549 34,000  Level FlightAware ADS-B
06:41AM 27.6306 -92.3668 318° Northwest 479 551 34,000  Level FlightAware ADS-B
06:42AM 27.6872 -92.4239 318° Northwest 479 551 34,000  Level Houston Center
06:43AM 27.7872 -92.5250 318° Northwest 482 555 34,000  Level Houston Center
06:44AM 27.8856 -92.6258 318° Northwest 479 551 34,000  Level Houston Center
06:45AM 27.9833 -92.7256 318° Northwest 475 547 34,000 -60 Level Houston Center
06:46AM 28.0800 -92.8278 317° Northwest 475 547 33,900 -60 Descending Houston Center
06:47AM 28.1772 -92.9269 318° Northwest 471 542 33,900  Level Houston Center
06:48AM 28.2758 -93.0278 318° Northwest 477 549 34,000 -60 Climbing Houston Center
06:49AM 28.3753 -93.1314 317° Northwest 482 555 33,800 -600 Descending Houston Center
06:50AM 28.4758 -93.2356 318° Northwest 487 560 32,800 -1,140 Descending Houston Center
06:56AM 29.0861 -93.8704 318° Northwest 466 536 26,000 -1,260 Descending FlightAware ADS-B
06:56AM 29.1336 -93.9205 317° Northwest 461 531 24,600 -2,880 Descending FlightAware ADS-B
06:57AM 29.1804 -93.9699 317° Northwest 456 525 23,100 -2,940 Descending FlightAware ADS-B
06:57AM 29.2265 -94.0187 317° Northwest 446 513 21,700 -2,100 Descending FlightAware ADS-B
06:58AM 29.2716 -94.0664 317° Northwest 433 498 21,000 -1,800 Descending FlightAware ADS-B
06:58AM 29.3151 -94.1127 317° Northwest 420 483 19,900 -2,400 Descending FlightAware ADS-B
06:59AM 29.3578 -94.1578 317° Northwest 411 473 18,600 -2,580 Descending FlightAware ADS-B
06:59AM 29.3996 -94.2022 317° Northwest 403 464 17,300 -2,700 Descending FlightAware ADS-B
07:00AM 29.4405 -94.2456 317° Northwest 398 458 15,900 -2,880 Descending FlightAware ADS-B
07:00AM 29.4690 -94.2761 317° Northwest 393 452 14,900 -2,340 Descending FlightAware ADS-B
07:00AM 29.4842 -94.2949 313° West 389 448 14,600 -1,140 Descending FlightAware ADS-B
07:01AM 29.5185 -94.3437 309° West 389 448 14,100 -1,020 Descending FlightAware ADS-B
07:01AM 29.5529 -94.3923 309° West 385 443 13,600 -1,020 Descending FlightAware ADS-B
07:02AM 29.5866 -94.4400 309° West 382 440 13,100 -1,020 Descending FlightAware ADS-B
07:02AM 29.6200 -94.4874 309° West 379 436 12,600 -1,020 Descending FlightAware ADS-B
07:03AM 29.6535 -94.5349 309° West 377 434 12,100 -1,680 Descending FlightAware ADS-B
07:03AM 29.6864 -94.5815 309° West 370 426 10,900 -1,560 Descending FlightAware ADS-B
07:04AM 29.7183 -94.6268 309° West 341 392 10,500 -720 Descending FlightAware ADS-B
07:04AM 29.7467 -94.6674 309° West 316 364 10,200 -660 Descending FlightAware ADS-B
07:05AM 29.7637 -94.6916 309° West 301 346 10,000 -720 Descending FlightAware ADS-B
07:05AM 29.7767 -94.7102 309° West 292 336 9,800 -1,200 Descending FlightAware ADS-B
07:05AM 29.7893 -94.7284 309° West 290 334 9,400 -1,440 Descending FlightAware ADS-B
07:05AM 29.8020 -94.7465 309° West 289 333 9,100 -1,440 Descending FlightAware ADS-B
07:06AM 29.8147 -94.7645 309° West 288 331 8,700 -1,620 Descending FlightAware ADS-B
07:06AM 29.8276 -94.7826 309° West 287 330 8,300 -1,440 Descending FlightAware ADS-B
07:06AM 29.8401 -94.8003 309° West 285 328 8,000 -1,440 Descending FlightAware ADS-B
07:06AM 29.8526 -94.8182 309° West 284 327 7,600 -1,560 Descending FlightAware ADS-B
07:07AM 29.8651 -94.8361 309° West 282 325 7,200 -1,500 Descending FlightAware ADS-B
07:07AM 29.8688 -94.8417 307° West 282 325 7,100 -1,500 Descending FlightAware ADS-B
07:07AM 29.8717 -94.8466 304° West 282 325 7,000 -1,740 Descending FlightAware ADS-B
07:07AM 29.8738 -94.8504 303° West 282 325 6,900 -2,040 Descending FlightAware ADS-B
07:07AM 29.8758 -94.8544 300° West 283 326 6,800 -2,280 Descending FlightAware ADS-B
07:07AM 29.8784 -94.8599 299° West 282 325 6,600 -2,040 Descending FlightAware ADS-B
07:07AM 29.8808 -94.8657 296° West 280 322 6,500 -1,380 Descending FlightAware ADS-B
07:07AM 29.8878 -94.8853 292° West 273 314 6,200 -1,680 Descending FlightAware ADS-B
07:08AM 29.8950 -94.9055 292° West 272 313 5,700 -1,680 Descending FlightAware ADS-B
07:08AM 29.9016 -94.9238 293° West 267 307 5,400 -1,200 Descending FlightAware ADS-B
07:08AM 29.9087 -94.9438 292° West 263 303 5,100 -1,020 Descending FlightAware ADS-B
07:08AM 29.9157 -94.9630 293° West 256 295 4,900 -660 Descending FlightAware ADS-B
07:09AM 29.9219 -94.9803 292° West 248 285 4,800 -720 Descending FlightAware ADS-B
07:09AM 29.9274 -94.9956 293° West 240 276 4,600 -660 Descending FlightAware ADS-B
07:09AM 29.9336 -95.0130 292° West 231 266 4,500 -420 Descending FlightAware ADS-B
07:09AM 29.9396 -95.0297 293° West 224 258 4,400 -420 Descending FlightAware ADS-B
07:10AM 29.9454 -95.0458 293° West 216 249 4,300 -420 Descending FlightAware ADS-B
07:10AM 29.9511 -95.0618 292° West 206 237 4,200 -780 Descending FlightAware ADS-B
07:10AM 29.9569 -95.0781 292° West 204 235 3,900 -1,140 Descending FlightAware ADS-B
07:10AM 29.9624 -95.0934 293° West 203 234 3,600 -1,200 Descending FlightAware ADS-B
07:11AM 29.9679 -95.1088 292° West 203 234 3,300 -1,200 Descending FlightAware ADS-B
07:11AM 29.9734 -95.1238 293° West 200 230 3,000 -1,200 Descending FlightAware ADS-B
07:11AM 29.9754 -95.1298 291° West 199 229 2,900 -1,140 Descending FlightAware ADS-B
07:11AM 29.9767 -95.1341 289° West 198 228 2,800 -1,140 Descending FlightAware ADS-B
07:11AM 29.9778 -95.1404 281° West 194 223 2,700 -720 Descending FlightAware ADS-B
07:11AM 29.9781 -95.1436 276° West 192 221 2,700 -900 Level FlightAware ADS-B
07:11AM 29.9782 -95.1473 272° West 191 220 2,600 -1,440 Descending FlightAware ADS-B
07:11AM 29.9780 -95.1565 269° West 188 216 2,400 -1,200 Descending FlightAware ADS-B
07:12AM 29.9776 -95.1690 268° West 186 214 2,200 -780 Descending FlightAware ADS-B
07:12AM 29.9776 -95.1731 270° West 186 214 2,200 -900 Level FlightAware ADS-B
07:12AM 29.9776 -95.1888 270° West 182 209 1,900 -960 Descending FlightAware ADS-B
07:12AM 29.9776 -95.2033 270° West 180 207 1,700 -1,020 Descending FlightAware ADS-B
07:12AM 29.9776 -95.2180 270° West 177 204 1,400 -1,020 Descending FlightAware ADS-B
07:13AM 29.9775 -95.2319 270° West 168 193 1,200 -720 Descending FlightAware ADS-B
07:13AM 29.9775 -95.2400 270° West 155 178 1,100 -720 Descending FlightAware ADS-B
07:13AM 29.9775 -95.2471 270° West 148 170 1,000 -1,080 Descending FlightAware ADS-B
07:13AM 29.9775 -95.2541 270° West 145 167 800 -780 Descending FlightAware ADS-B
07:13AM 29.9776 -95.2592 271° West 144 166 800 -600 Level FlightAware ADS-B
07:14AM 29.9776 -95.2709 270° West 145 167 600 -840 Descending FlightAware ADS-B
07:14AM 29.9776 -95.2758 270° West 145 167 500 -780 Descending FlightAware ADS-B
07:14AM 29.9776 -95.2895 270° West 148 170 300 -840 Descending FlightAware ADS-B
07:14AM 29.9776 -95.2989 270° West 151 174 100 -1,020 Descending FlightAware ADS-B